Time,TemperatureF,DewpointF,PressureIn,WindDirection,WindDirectionDegrees,WindSpeedMPH,WindSpeedGustMPH,Humidity,HourlyPrecipIn,Conditions,Clouds,dailyrainin,SoftwareType,DateUTC
2013-01-20 00:02:00,29.3,24.5,30.33,NW,315,0.0,0.0,82,0.00,CLR,FEW,0.00,WeatherDisplay:10.37,2013-01-20 08:02:00,
2013-01-20 00:17:00,29.3,24.5,30.32,NNW,338,0.0,0.0,82,0.00,CLR,FEW,0.00,WeatherDisplay:10.37,2013-01-20 08:17:00,
2013-01-20 00:32:00,29.5,24.7,30.33,WNW,292,0.0,0.0,82,0.00,CLR,FEW,0.00,WeatherDisplay:10.37,2013-01-20 08:32:00,
2013-01-20 00:47:00,29.4,24.9,30.34,NW,306,0.0,0.0,83,0.00,CLR,FEW,0.00,WeatherDisplay:10.37,2013-01-20 08:47:00,
2013-01-20 01:02:00,29.1,24.6,30.34,WNW,292,0.0,0.0,83,0.00,BKN,FEW,0.00,WeatherDisplay:10.37,2013-01-20 09:02:00,
2013-01-20 01:17:00,28.6,24.1,30.34,WNW,292,0.0,0.0,83,0.00,BKN,FEW,0.00,WeatherDisplay:10.37,2013-01-20 09:17:00,
2013-01-20 01:32:00,28.2,23.4,30.34,WNW,292,0.0,0.0,82,0.00,BKN,FEW,0.00,WeatherDisplay:10.37,2013-01-20 09:32:00,
2013-01-20 01:47:00,28.2,23.4,30.35,WSW,241,0.0,0.0,82,0.00,BKN,FEW,0.00,WeatherDisplay:10.37,2013-01-20 09:47:00,
2013-01-20 02:02:00,28.2,23.7,30.35,SSW,202,0.0,0.0,83,0.00,SCT,FEW,0.00,WeatherDisplay:10.37,2013-01-20 10:02:00,
2013-01-20 02:17:00,28.2,23.7,30.35,SSW,202,0.0,0.0,83,0.00,SCT,FEW,0.00,WeatherDisplay:10.37,2013-01-20 10:17:00,
2013-01-20 02:32:00,27.7,22.9,30.35,SSW,202,0.0,0.0,82,0.00,SCT,FEW,0.00,WeatherDisplay:10.37,2013-01-20 10:32:00,
2013-01-20 02:47:00,27.3,22.5,30.34,SSW,202,0.0,0.0,82,0.00,SCT,FEW,0.00,WeatherDisplay:10.37,2013-01-20 10:47:00,
2013-01-20 03:02:00,27.0,22.5,30.33,SSW,202,0.0,0.0,83,0.00,CLR,FEW,0.00,WeatherDisplay:10.37,2013-01-20 11:02:00,
2013-01-20 03:17:00,26.3,21.8,30.34,SSW,202,0.0,0.0,83,0.00,CLR,FEW,0.00,WeatherDisplay:10.37,2013-01-20 11:17:00,
2013-01-20 03:32:00,25.7,21.0,30.33,SSW,202,0.0,0.0,82,0.00,CLR,FEW,0.00,WeatherDisplay:10.37,2013-01-20 11:32:00,
2013-01-20 03:47:00,25.4,21.0,30.32,SSW,202,0.0,0.0,83,0.00,CLR,FEW,0.00,WeatherDisplay:10.37,2013-01-20 11:47:00,
2013-01-20 04:02:00,25.2,20.7,30.32,NNE,19,0.0,0.0,83,0.00,CLR,FEW,0.00,WeatherDisplay:10.37,2013-01-20 12:02:00,
2013-01-20 04:17:00,24.6,20.2,30.32,North,10,0.0,0.0,83,0.00,CLR,FEW,0.00,WeatherDisplay:10.37,2013-01-20 12:17:00,
2013-01-20 04:32:00,24.4,20.0,30.31,NW,318,0.0,0.0,83,0.00,CLR,FEW,0.00,WeatherDisplay:10.37,2013-01-20 12:32:00,
2013-01-20 04:47:00,23.9,19.5,30.31,West,270,0.0,0.0,83,0.00,CLR,FEW,0.00,WeatherDisplay:10.37,2013-01-20 12:47:00,
2013-01-20 05:02:00,23.7,19.3,30.31,West,270,0.0,0.0,83,0.00,OVC,FEW,0.00,WeatherDisplay:10.37,2013-01-20 13:02:00,
2013-01-20 05:17:00,23.5,19.1,30.31,West,270,0.0,0.0,83,0.00,OVC,FEW,0.00,WeatherDisplay:10.37,2013-01-20 13:17:00,
2013-01-20 05:32:00,23.2,18.8,30.31,SW,230,0.0,0.0,83,0.00,OVC,FEW,0.00,WeatherDisplay:10.37,2013-01-20 13:32:00,
2013-01-20 05:47:00,22.8,18.4,30.31,SSW,202,0.0,0.0,83,0.00,OVC,FEW,0.00,WeatherDisplay:10.37,2013-01-20 13:47:00,
2013-01-20 06:02:00,22.8,18.4,30.31,WNW,297,0.0,0.0,83,0.00,BKN,FEW,0.00,WeatherDisplay:10.37,2013-01-20 14:02:00,
2013-01-20 06:17:00,22.7,18.3,30.31,West,262,0.0,0.0,83,0.00,BKN,FEW,0.00,WeatherDisplay:10.37,2013-01-20 14:17:00,
2013-01-20 06:32:00,22.3,17.9,30.31,WSW,241,0.0,0.0,83,0.00,BKN,FEW,0.00,WeatherDisplay:10.37,2013-01-20 14:32:00,
2013-01-20 06:47:00,22.5,18.1,30.30,NNW,338,0.0,0.0,83,0.00,BKN,FEW,0.00,WeatherDisplay:10.37,2013-01-20 14:47:00,
2013-01-20 07:02:00,22.3,17.9,30.31,NNW,338,0.0,0.0,83,0.00,OVC,FEW,0.00,WeatherDisplay:10.37,2013-01-20 15:02:00,
2013-01-20 07:17:00,21.9,17.5,30.30,NW,326,0.0,0.0,83,0.00,OVC,FEW,0.00,WeatherDisplay:10.37,2013-01-20 15:17:00,
2013-01-20 07:32:00,21.9,17.5,30.31,SW,232,0.0,0.0,83,0.00,OVC,FEW,0.00,WeatherDisplay:10.37,2013-01-20 15:32:00,
2013-01-20 07:47:00,21.9,17.5,30.31,SW,225,0.0,0.0,83,0.00,OVC,FEW,0.00,WeatherDisplay:10.37,2013-01-20 15:47:00,
2013-01-20 08:02:00,21.7,17.4,30.31,SW,225,0.0,0.0,83,0.00,OVC,FEW,0.00,WeatherDisplay:10.37,2013-01-20 16:02:00,
2013-01-20 08:17:00,21.7,17.4,30.31,SW,225,0.0,0.0,83,0.00,OVC,FEW,0.00,WeatherDisplay:10.37,2013-01-20 16:17:00,
2013-01-20 08:32:00,21.8,17.4,30.31,SW,225,0.0,0.0,83,0.00,OVC,FEW,0.00,WeatherDisplay:10.37,2013-01-20 16:32:00,
2013-01-20 08:47:00,22.0,17.7,30.31,SW,225,0.0,0.0,83,0.00,OVC,FEW,0.00,WeatherDisplay:10.37,2013-01-20 16:47:00,
2013-01-20 09:02:00,22.8,18.7,30.31,SSW,192,0.0,0.0,84,0.00,CLR,FEW,0.00,WeatherDisplay:10.37,2013-01-20 17:02:00,
2013-01-20 09:17:00,24.0,19.8,30.31,South,180,0.0,0.0,84,0.00,CLR,FEW,0.00,WeatherDisplay:10.37,2013-01-20 17:17:00,
2013-01-20 09:32:00,25.7,21.6,30.31,South,180,0.0,0.0,84,0.00,CLR,FEW,0.00,WeatherDisplay:10.37,2013-01-20 17:32:00,
2013-01-20 09:47:00,28.0,24.1,30.31,SSE,158,0.0,0.0,85,0.00,CLR,FEW,0.00,WeatherDisplay:10.37,2013-01-20 17:47:00,
2013-01-20 10:02:00,30.0,26.1,30.31,SSE,158,0.0,0.0,85,0.00,OVC,FEW,0.00,WeatherDisplay:10.37,2013-01-20 18:02:00,
2013-01-20 10:17:00,31.8,27.8,30.31,ESE,103,0.0,3.0,85,0.00,OVC,FEW,0.00,WeatherDisplay:10.37,2013-01-20 18:17:00,
2013-01-20 10:32:00,33.7,29.7,30.30,NE,34,0.0,1.0,85,0.00,OVC,FEW,0.00,WeatherDisplay:10.37,2013-01-20 18:32:00,
2013-01-20 10:47:00,34.9,30.8,30.31,ENE,63,0.0,2.0,85,0.02,RA,FEW,0.02,WeatherDisplay:10.37,2013-01-20 18:47:00,
2013-01-20 11:02:00,36.6,32.6,30.29,NW,304,0.0,2.0,85,0.00,OVC,FEW,0.02,WeatherDisplay:10.37,2013-01-20 19:02:00,
2013-01-20 11:17:00,38.7,34.6,30.28,North,1,0.0,2.0,85,0.00,OVC,FEW,0.02,WeatherDisplay:10.37,2013-01-20 19:17:00,
2013-01-20 11:32:00,40.3,36.1,30.27,WNW,283,0.0,3.0,85,0.00,OVC,FEW,0.02,WeatherDisplay:10.37,2013-01-20 19:32:00,
2013-01-20 11:47:00,42.1,37.6,30.27,North,9,1.0,2.0,84,0.00,OVC,FEW,0.02,WeatherDisplay:10.37,2013-01-20 19:47:00,
2013-01-20 12:02:00,43.8,38.6,30.25,North,5,1.0,1.0,82,0.00,CLR,FEW,0.02,WeatherDisplay:10.37,2013-01-20 20:02:00,
2013-01-20 12:17:00,45.3,39.1,30.25,NNE,12,0.0,2.0,79,0.00,CLR,FEW,0.02,WeatherDisplay:10.37,2013-01-20 20:17:00,
2013-01-20 12:32:00,46.6,39.8,30.24,NW,317,1.0,3.0,77,0.00,CLR,FEW,0.02,WeatherDisplay:10.37,2013-01-20 20:32:00,
2013-01-20 12:47:00,47.7,40.1,30.23,NW,324,0.0,2.0,75,0.00,CLR,FEW,0.02,WeatherDisplay:10.37,2013-01-20 20:47:00,
2013-01-20 13:02:00,48.6,40.3,30.22,NE,37,1.0,3.0,73,0.00,CLR,FEW,0.02,WeatherDisplay:10.37,2013-01-20 21:02:00,
2013-01-20 13:17:00,49.3,39.2,30.22,NE,44,2.0,6.0,68,0.00,CLR,FEW,0.02,WeatherDisplay:10.37,2013-01-20 21:17:00,
2013-01-20 13:32:00,49.8,38.9,30.21,ENE,66,5.0,6.0,66,0.00,CLR,FEW,0.02,WeatherDisplay:10.37,2013-01-20 21:32:00,
2013-01-20 13:47:00,49.8,38.1,30.21,NNE,32,1.0,7.0,64,0.00,CLR,FEW,0.02,WeatherDisplay:10.37,2013-01-20 21:47:00,
2013-01-20 14:02:00,50.5,38.4,30.20,ENE,57,2.0,7.0,63,0.00,CLR,FEW,0.02,WeatherDisplay:10.37,2013-01-20 22:02:00,
2013-01-20 14:17:00,51.6,39.0,30.20,ENE,59,0.0,4.0,62,0.00,CLR,FEW,0.02,WeatherDisplay:10.37,2013-01-20 22:17:00,
2013-01-20 14:32:00,51.3,37.4,30.21,NE,53,2.0,14.0,59,0.00,CLR,FEW,0.02,WeatherDisplay:10.37,2013-01-20 22:32:00,
2013-01-20 14:47:00,50.4,37.0,30.21,NE,52,1.0,7.0,60,0.00,CLR,FEW,0.02,WeatherDisplay:10.37,2013-01-20 22:47:00,
2013-01-20 15:17:00,49.0,36.5,30.22,NE,37,1.0,6.0,62,0.00,CLR,FEW,0.02,WeatherDisplay:10.37,2013-01-20 23:17:00,
2013-01-20 15:32:00,48.7,36.7,30.21,NE,38,0.0,3.0,63,0.00,CLR,FEW,0.02,WeatherDisplay:10.37,2013-01-20 23:32:00,
2013-01-20 15:47:00,48.4,36.4,30.21,ENE,57,0.0,4.0,63,0.00,CLR,FEW,0.02,WeatherDisplay:10.37,2013-01-20 23:47:00,
2013-01-20 16:02:00,47.9,35.9,30.21,NNE,33,0.0,4.0,63,0.00,CLR,FEW,0.02,WeatherDisplay:10.37,2013-01-21 00:02:00,
2013-01-20 16:17:00,46.9,35.3,30.21,NNE,32,1.0,2.0,64,0.00,CLR,FEW,0.02,WeatherDisplay:10.37,2013-01-21 00:17:00,
2013-01-20 16:32:00,45.9,34.8,30.22,NNE,22,1.0,3.0,65,0.00,CLR,FEW,0.02,WeatherDisplay:10.37,2013-01-21 00:32:00,
2013-01-20 16:47:00,44.6,33.9,30.21,NE,35,0.0,2.0,66,0.00,CLR,FEW,0.02,WeatherDisplay:10.37,2013-01-21 00:47:00,
2013-01-20 17:02:00,42.6,32.0,30.20,South,180,0.0,0.0,66,0.00,CLR,FEW,0.02,WeatherDisplay:10.37,2013-01-21 01:02:00,
2013-01-20 17:17:00,40.6,30.9,30.20,South,180,0.0,0.0,68,0.00,CLR,FEW,0.02,WeatherDisplay:10.37,2013-01-21 01:17:00,
2013-01-20 17:32:00,38.7,29.8,30.20,South,180,0.0,0.0,70,0.00,CLR,FEW,0.02,WeatherDisplay:10.37,2013-01-21 01:32:00,
2013-01-20 17:47:00,37.1,28.5,30.20,South,180,0.0,0.0,71,0.00,CLR,FEW,0.02,WeatherDisplay:10.37,2013-01-21 01:47:00,
2013-01-20 18:02:00,35.5,27.4,30.19,South,180,0.0,0.0,72,0.00,CLR,FEW,0.02,WeatherDisplay:10.37,2013-01-21 02:02:00,
2013-01-20 18:17:00,34.3,26.6,30.19,SSW,202,0.0,0.0,73,0.00,CLR,FEW,0.02,WeatherDisplay:10.37,2013-01-21 02:17:00,
2013-01-20 18:32:00,33.4,26.0,30.19,SSW,211,0.0,0.0,74,0.00,CLR,FEW,0.02,WeatherDisplay:10.37,2013-01-21 02:32:00,
2013-01-20 18:47:00,32.5,25.8,30.20,SW,225,0.0,0.0,76,0.00,CLR,FEW,0.02,WeatherDisplay:10.37,2013-01-21 02:47:00,
2013-01-20 19:02:00,31.8,25.1,30.20,SW,225,0.0,0.0,76,0.00,CLR,FEW,0.02,WeatherDisplay:10.37,2013-01-21 03:02:00,
2013-01-20 19:17:00,31.2,24.8,30.20,SW,225,0.0,0.0,77,0.00,CLR,FEW,0.02,WeatherDisplay:10.37,2013-01-21 03:17:00,
2013-01-20 19:32:00,30.7,24.7,30.21,SW,225,0.0,0.0,78,0.00,CLR,FEW,0.02,WeatherDisplay:10.37,2013-01-21 03:32:00,
2013-01-20 19:47:00,30.1,24.0,30.21,SW,225,0.0,0.0,78,0.00,CLR,FEW,0.02,WeatherDisplay:10.37,2013-01-21 03:47:00,
2013-01-20 20:02:00,29.8,23.8,30.21,SW,225,0.0,0.0,78,0.00,CLR,FEW,0.02,WeatherDisplay:10.37,2013-01-21 04:02:00,
2013-01-20 20:17:00,29.4,23.7,30.20,SW,225,0.0,0.0,79,0.00,CLR,FEW,0.02,WeatherDisplay:10.37,2013-01-21 04:17:00,
2013-01-20 20:32:00,28.9,23.2,30.21,SW,221,0.0,0.0,79,0.00,CLR,FEW,0.02,WeatherDisplay:10.37,2013-01-21 04:32:00,
2013-01-20 20:47:00,28.8,23.4,30.21,SSW,202,0.0,0.0,80,0.00,CLR,FEW,0.02,WeatherDisplay:10.37,2013-01-21 04:47:00,
2013-01-20 21:17:00,28.6,23.2,30.22,SE,126,0.0,2.0,80,0.00,CLR,FEW,0.02,WeatherDisplay:10.37,2013-01-21 05:17:00,
2013-01-20 21:32:00,28.9,23.8,30.22,NNE,30,0.0,3.0,81,0.00,CLR,FEW,0.02,WeatherDisplay:10.37,2013-01-21 05:32:00,
2013-01-20 21:47:00,29.7,24.8,30.22,ENE,75,0.0,5.0,82,0.00,CLR,FEW,0.02,WeatherDisplay:10.37,2013-01-21 05:47:00,
2013-01-20 22:02:00,30.7,25.9,30.22,NE,42,2.0,8.0,82,0.00,CLR,FEW,0.02,WeatherDisplay:10.37,2013-01-21 06:02:00,
2013-01-20 22:17:00,31.8,27.2,30.22,NE,44,0.0,5.0,83,0.00,CLR,FEW,0.02,WeatherDisplay:10.37,2013-01-21 06:17:00,
2013-01-20 22:32:00,32.2,27.6,30.22,NE,51,3.0,6.0,83,0.00,CLR,FEW,0.02,WeatherDisplay:10.37,2013-01-21 06:32:00,
2013-01-20 22:47:00,32.5,28.0,30.22,NE,47,2.0,7.0,83,0.00,CLR,FEW,0.02,WeatherDisplay:10.37,2013-01-21 06:47:00,
2013-01-20 23:02:00,32.6,28.0,30.22,ENE,58,2.0,6.0,83,0.00,CLR,FEW,0.02,WeatherDisplay:10.37,2013-01-21 07:02:00,
2013-01-20 23:17:00,32.5,27.7,30.24,East,98,1.0,6.0,82,0.00,CLR,FEW,0.02,WeatherDisplay:10.37,2013-01-21 07:17:00,
2013-01-20 23:32:00,31.3,26.5,30.23,SSE,165,0.0,2.0,82,0.00,CLR,FEW,0.02,WeatherDisplay:10.37,2013-01-21 07:32:00,
2013-01-20 23:47:00,30.2,25.4,30.23,SSE,162,0.0,5.0,82,0.00,CLR,FEW,0.02,WeatherDisplay:10.37,2013-01-21 07:47:00,